DAM weather

Damascus International Airport
Damascus, Damascus Governorate, Syria

Public forecast

Using degrees Celsius for public forecast. Weather courtesy of forecast.io.

Current aviation weather report (METAR) for Damascus International Airport

Retrieved 2019/10/16 21:15 UTC (29 minutes ago):

OSDI 162115Z 05006KT 9999TS FEW030CB SCT100 20/07 Q1019

Aviation forecast (TAF) for Damascus International Airport

Forecast is more than 6 hours old.

Retrieved 2019/10/16 12:03 UTC (10 hours ago):

TAF TAF OSDI 161000Z 1612/1718 22010KT 9999 FEW030 SCT100